sensor_id;sensor_type;location;lat;lon;timestamp;pressure;altitude;pressure_sealevel;temperature;humidity
70900;BME280;67902;52.154;5.430;2023-04-04T00:02:04;103177.13;;;2.58;72.53
70900;BME280;67902;52.154;5.430;2023-04-04T00:04:31;103170.91;;;2.57;72.89
70900;BME280;67902;52.154;5.430;2023-04-04T00:06:57;103168.09;;;2.59;72.15
70900;BME280;67902;52.154;5.430;2023-04-04T00:09:24;103172.03;;;2.55;72.18
70900;BME280;67902;52.154;5.430;2023-04-04T00:11:51;103166.97;;;2.52;72.75
70900;BME280;67902;52.154;5.430;2023-04-04T00:14:17;103163.56;;;2.50;73.05
70900;BME280;67902;52.154;5.430;2023-04-04T00:16:44;103158.53;;;2.56;73.00
70900;BME280;67902;52.154;5.430;2023-04-04T00:19:10;103146.59;;;2.60;72.30
70900;BME280;67902;52.154;5.430;2023-04-04T00:21:45;103147.69;;;2.58;71.87
70900;BME280;67902;52.154;5.430;2023-04-04T00:24:12;103144.75;;;2.61;72.89
70900;BME280;67902;52.154;5.430;2023-04-04T00:26:39;103146.16;;;2.65;72.22
70900;BME280;67902;52.154;5.430;2023-04-04T00:29:05;103146.31;;;2.73;72.85
70900;BME280;67902;52.154;5.430;2023-04-04T00:31:32;103142.38;;;2.67;72.08
70900;BME280;67902;52.154;5.430;2023-04-04T00:33:59;103140.81;;;2.65;72.20
70900;BME280;67902;52.154;5.430;2023-04-04T00:36:25;103136.16;;;2.67;73.08
70900;BME280;67902;52.154;5.430;2023-04-04T00:38:52;103140.81;;;2.65;72.99
70900;BME280;67902;52.154;5.430;2023-04-04T00:41:18;103144.75;;;2.61;73.28
70900;BME280;67902;52.154;5.430;2023-04-04T00:43:45;103143.59;;;2.54;73.88
70900;BME280;67902;52.154;5.430;2023-04-04T00:46:12;103136.84;;;2.50;74.27
70900;BME280;67902;52.154;5.430;2023-04-04T00:48:41;103137.63;;;2.41;74.50
70900;BME280;67902;52.154;5.430;2023-04-04T00:51:07;103138.59;;;2.40;72.39
70900;BME280;67902;52.154;5.430;2023-04-04T00:53:34;103141.88;;;2.43;72.41
70900;BME280;67902;52.154;5.430;2023-04-04T00:56:01;103146.38;;;2.43;72.95
70900;BME280;67902;52.154;5.430;2023-04-04T00:58:28;103140.59;;;2.38;73.97
70900;BME280;67902;52.154;5.430;2023-04-04T01:00:55;103132.13;;;2.32;74.41
70900;BME280;67902;52.154;5.430;2023-04-04T01:03:21;103133.34;;;2.28;75.04
70900;BME280;67902;52.154;5.430;2023-04-04T01:05:48;103136.19;;;2.27;75.03
70900;BME280;67902;52.154;5.430;2023-04-04T01:08:20;103138.97;;;2.25;75.48
70900;BME280;67902;52.154;5.430;2023-04-04T01:10:48;103133.31;;;2.19;75.01
70900;BME280;67902;52.154;5.430;2023-04-04T01:13:15;103143.69;;;2.12;75.48
70900;BME280;67902;52.154;5.430;2023-04-04T01:15:41;103136.06;;;2.08;75.79
70900;BME280;67902;52.154;5.430;2023-04-04T01:18:10;103136.28;;;1.95;75.08
70900;BME280;67902;52.154;5.430;2023-04-04T01:20:43;103137.31;;;1.83;76.16
70900;BME280;67902;52.154;5.430;2023-04-04T01:23:12;103136.16;;;1.76;76.49
70900;BME280;67902;52.154;5.430;2023-04-04T01:25:39;103139.34;;;1.70;75.94
70900;BME280;67902;52.154;5.430;2023-04-04T01:28:05;103138.53;;;1.58;76.61
70900;BME280;67902;52.154;5.430;2023-04-04T01:30:34;103142.19;;;1.57;76.69
70900;BME280;67902;52.154;5.430;2023-04-04T01:36:02;103149.69;;;1.43;77.73
70900;BME280;67902;52.154;5.430;2023-04-04T01:38:37;103139.72;;;1.45;77.86
70900;BME280;67902;52.154;5.430;2023-04-04T01:41:07;103140.66;;;1.44;77.41
70900;BME280;67902;52.154;5.430;2023-04-04T01:43:34;103153.31;;;1.42;77.92
70900;BME280;67902;52.154;5.430;2023-04-04T01:46:01;103154.16;;;1.42;78.69
70900;BME280;67902;52.154;5.430;2023-04-04T01:48:28;103148.22;;;1.39;78.28
70900;BME280;67902;52.154;5.430;2023-04-04T01:50:55;103146.81;;;1.35;79.05
70900;BME280;67902;52.154;5.430;2023-04-04T01:53:22;103145.09;;;1.34;78.84
70900;BME280;67902;52.154;5.430;2023-04-04T01:55:48;103144.50;;;1.30;78.85
70900;BME280;67902;52.154;5.430;2023-04-04T01:58:15;103140.50;;;1.25;78.48
70900;BME280;67902;52.154;5.430;2023-04-04T02:00:41;103137.97;;;1.23;79.04
70900;BME280;67902;52.154;5.430;2023-04-04T02:03:08;103143.19;;;1.25;78.96
70900;BME280;67902;52.154;5.430;2023-04-04T02:05:34;103138.56;;;1.27;79.07
70900;BME280;67902;52.154;5.430;2023-04-04T02:08:01;103133.75;;;1.21;79.27
70900;BME280;67902;52.154;5.430;2023-04-04T02:10:28;103135.09;;;1.15;78.72
70900;BME280;67902;52.154;5.430;2023-04-04T02:12:55;103147.00;;;1.11;79.08
70900;BME280;67902;52.154;5.430;2023-04-04T02:15:23;103146.41;;;0.96;78.96
70900;BME280;67902;52.154;5.430;2023-04-04T02:17:50;103154.19;;;0.88;79.17
70900;BME280;67902;52.154;5.430;2023-04-04T02:20:17;103149.56;;;0.90;79.89
70900;BME280;67902;52.154;5.430;2023-04-04T02:22:51;103155.41;;;0.95;79.88
70900;BME280;67902;52.154;5.430;2023-04-04T02:25:20;103155.97;;;0.99;80.09
70900;BME280;67902;52.154;5.430;2023-04-04T02:27:47;103155.75;;;0.91;79.74
70900;BME280;67902;52.154;5.430;2023-04-04T02:30:14;103157.56;;;0.90;79.89
70900;BME280;67902;52.154;5.430;2023-04-04T02:32:41;103153.22;;;0.89;79.89
70900;BME280;67902;52.154;5.430;2023-04-04T02:35:08;103148.16;;;0.86;80.75
70900;BME280;67902;52.154;5.430;2023-04-04T02:37:34;103146.34;;;0.87;80.96
70900;BME280;67902;52.154;5.430;2023-04-04T02:40:02;103147.91;;;0.89;80.97
70900;BME280;67902;52.154;5.430;2023-04-04T02:42:28;103136.00;;;0.93;81.19
70900;BME280;67902;52.154;5.430;2023-04-04T02:44:55;103130.91;;;0.90;81.15
70900;BME280;67902;52.154;5.430;2023-04-04T02:47:21;103129.47;;;0.86;81.02
70900;BME280;67902;52.154;5.430;2023-04-04T02:49:47;103131.28;;;0.86;79.94
70900;BME280;67902;52.154;5.430;2023-04-04T02:52:14;103121.72;;;0.83;80.50
70900;BME280;67902;52.154;5.430;2023-04-04T02:54:40;103120.75;;;0.73;80.30
70900;BME280;67902;52.154;5.430;2023-04-04T02:57:06;103117.88;;;0.65;80.51
70900;BME280;67902;52.154;5.430;2023-04-04T02:59:33;103116.53;;;0.59;80.27
70900;BME280;67902;52.154;5.430;2023-04-04T03:01:59;103111.34;;;0.58;81.01
70900;BME280;67902;52.154;5.430;2023-04-04T03:04:26;103111.34;;;0.58;80.98
70900;BME280;67902;52.154;5.430;2023-04-04T03:06:54;103127.19;;;0.59;81.38
70900;BME280;67902;52.154;5.430;2023-04-04T03:09:20;103121.63;;;0.63;81.24
70900;BME280;67902;52.154;5.430;2023-04-04T03:11:47;103122.72;;;0.60;82.30
70900;BME280;67902;52.154;5.430;2023-04-04T03:14:14;103126.63;;;0.56;81.65
70900;BME280;67902;52.154;5.430;2023-04-04T03:16:41;103120.53;;;0.54;82.13
70900;BME280;67902;52.154;5.430;2023-04-04T03:19:07;103121.78;;;0.50;81.54
70900;BME280;67902;52.154;5.430;2023-04-04T03:21:34;103119.13;;;0.50;81.74
70900;BME280;67902;52.154;5.430;2023-04-04T03:24:00;103121.78;;;0.50;82.80
70900;BME280;67902;52.154;5.430;2023-04-04T03:26:27;103113.03;;;0.48;82.24
70900;BME280;67902;52.154;5.430;2023-04-04T03:28:54;103114.13;;;0.45;83.11
70900;BME280;67902;52.154;5.430;2023-04-04T03:31:20;103110.75;;;0.43;83.05
70900;BME280;67902;52.154;5.430;2023-04-04T03:33:47;103115.47;;;0.40;82.97
70900;BME280;67902;52.154;5.430;2023-04-04T03:36:14;103113.78;;;0.39;82.55
70900;BME280;67902;52.154;5.430;2023-04-04T03:38:40;103104.81;;;0.40;82.66
70900;BME280;67902;52.154;5.430;2023-04-04T03:41:08;103101.44;;;0.38;82.42
70900;BME280;67902;52.154;5.430;2023-04-04T03:43:34;103104.72;;;0.30;82.02
70900;BME280;67902;52.154;5.430;2023-04-04T03:46:02;103103.72;;;0.20;82.71
70900;BME280;67902;52.154;5.430;2023-04-04T03:48:29;103109.28;;;0.17;82.48
70900;BME280;67902;52.154;5.430;2023-04-04T03:50:56;103105.44;;;0.21;82.91
70900;BME280;67902;52.154;5.430;2023-04-04T03:53:24;103106.28;;;0.22;82.64
70900;BME280;67902;52.154;5.430;2023-04-04T03:55:51;103101.19;;;0.19;83.32
70900;BME280;67902;52.154;5.430;2023-04-04T03:58:18;103100.81;;;0.12;83.07
70900;BME280;67902;52.154;5.430;2023-04-04T04:00:45;103101.44;;;0.16;83.59
70900;BME280;67902;52.154;5.430;2023-04-04T04:03:11;103097.53;;;0.09;82.91
70900;BME280;67902;52.154;5.430;2023-04-04T04:05:40;103103.84;;;0.08;83.45
70900;BME280;67902;52.154;5.430;2023-04-04T04:08:07;103117.19;;;0.08;83.30
70900;BME280;67902;52.154;5.430;2023-04-04T04:10:33;103110.28;;;0.05;83.26
70900;BME280;67902;52.154;5.430;2023-04-04T04:13:00;103111.84;;;0.08;83.58
70900;BME280;67902;52.154;5.430;2023-04-04T04:15:26;103121.03;;;0.04;83.53
70900;BME280;67902;52.154;5.430;2023-04-04T04:17:53;103120.94;;;0.05;84.29
70900;BME280;67902;52.154;5.430;2023-04-04T04:20:19;103119.13;;;0.06;84.36
70900;BME280;67902;52.154;5.430;2023-04-04T04:22:46;103114.50;;;0.08;83.99
70900;BME280;67902;52.154;5.430;2023-04-04T04:25:13;103118.13;;;0.07;84.73
70900;BME280;67902;52.154;5.430;2023-04-04T04:27:39;103117.28;;;0.06;84.22
70900;BME280;67902;52.154;5.430;2023-04-04T04:30:07;103121.25;;;0.00;84.73
70900;BME280;67902;52.154;5.430;2023-04-04T04:32:34;103111.59;;;-0.01;83.98
70900;BME280;67902;52.154;5.430;2023-04-04T04:35:00;103107.72;;;0.04;84.23
70900;BME280;67902;52.154;5.430;2023-04-04T04:37:27;103114.13;;;0.01;84.11
70900;BME280;67902;52.154;5.430;2023-04-04T04:39:53;103122.34;;;-0.02;85.08
70900;BME280;67902;52.154;5.430;2023-04-04T04:42:21;103116.94;;;-0.01;84.77
70900;BME280;67902;52.154;5.430;2023-04-04T04:44:47;103113.88;;;-0.07;85.22
70900;BME280;67902;52.154;5.430;2023-04-04T04:47:13;103114.72;;;-0.07;84.15
70900;BME280;67902;52.154;5.430;2023-04-04T04:49:40;103112.53;;;-0.13;84.84
70900;BME280;67902;52.154;5.430;2023-04-04T04:52:08;103112.69;;;-0.14;85.16
70900;BME280;67902;52.154;5.430;2023-04-04T04:54:34;103123.44;;;-0.16;85.67
70900;BME280;67902;52.154;5.430;2023-04-04T04:57:01;103118.34;;;-0.19;85.92
70900;BME280;67902;52.154;5.430;2023-04-04T04:59:27;103118.94;;;-0.26;85.40
70900;BME280;67902;52.154;5.430;2023-04-04T05:01:54;103121.22;;;-0.22;85.69
70900;BME280;67902;52.154;5.430;2023-04-04T05:04:21;103121.97;;;-0.20;85.75
70900;BME280;67902;52.154;5.430;2023-04-04T05:06:47;103129.72;;;-0.17;86.09
70900;BME280;67902;52.154;5.430;2023-04-04T05:09:14;103126.94;;;-0.15;86.33
70900;BME280;67902;52.154;5.430;2023-04-04T05:11:40;103127.78;;;-0.15;85.83
70900;BME280;67902;52.154;5.430;2023-04-04T05:14:07;103128.28;;;-0.10;86.15
70900;BME280;67902;52.154;5.430;2023-04-04T05:16:33;103129.50;;;-0.03;86.26
70900;BME280;67902;52.154;5.430;2023-04-04T05:18:59;103132.66;;;0.03;86.44
70900;BME280;67902;52.154;5.430;2023-04-04T05:21:26;103127.94;;;0.06;86.55
70900;BME280;67902;52.154;5.430;2023-04-04T05:23:53;103132.31;;;0.07;85.86
70900;BME280;67902;52.154;5.430;2023-04-04T05:26:21;103128.69;;;0.08;85.40
70900;BME280;67902;52.154;5.430;2023-04-04T05:28:47;103133.03;;;0.09;85.79
70900;BME280;67902;52.154;5.430;2023-04-04T05:31:14;103133.03;;;0.09;85.19
70900;BME280;67902;52.154;5.430;2023-04-04T05:33:40;103129.41;;;0.10;85.87
70900;BME280;67902;52.154;5.430;2023-04-04T05:36:07;103133.63;;;0.13;84.99
70900;BME280;67902;52.154;5.430;2023-04-04T05:38:33;103136.31;;;0.13;85.12
70900;BME280;67902;52.154;5.430;2023-04-04T05:41:00;103130.25;;;0.11;84.73
70900;BME280;67902;52.154;5.430;2023-04-04T05:43:26;103137.25;;;0.12;85.03
70900;BME280;67902;52.154;5.430;2023-04-04T05:45:53;103126.59;;;0.12;84.73
70900;BME280;67902;52.154;5.430;2023-04-04T05:48:19;103136.53;;;0.21;85.21
70900;BME280;67902;52.154;5.430;2023-04-04T05:50:46;103130.13;;;0.23;85.36
70900;BME280;67902;52.154;5.430;2023-04-04T05:53:12;103125.66;;;0.24;85.10
70900;BME280;67902;52.154;5.430;2023-04-04T05:55:39;103129.88;;;0.26;85.27
70900;BME280;67902;52.154;5.430;2023-04-04T05:58:06;103136.53;;;0.32;85.83
70900;BME280;67902;52.154;5.430;2023-04-04T06:00:32;103131.94;;;0.34;84.58
70900;BME280;67902;52.154;5.430;2023-04-04T06:02:58;103130.25;;;0.44;85.24
70900;BME280;67902;52.154;5.430;2023-04-04T06:05:25;103132.03;;;0.66;84.80
70900;BME280;67902;52.154;5.430;2023-04-04T06:07:53;103131.16;;;0.87;84.37
70900;BME280;67902;52.154;5.430;2023-04-04T06:10:19;103141.50;;;1.12;83.65
70900;BME280;67902;52.154;5.430;2023-04-04T06:12:46;103135.72;;;1.71;83.47
70900;BME280;67902;52.154;5.430;2023-04-04T06:15:12;103133.34;;;2.59;83.09
70900;BME280;67902;52.154;5.430;2023-04-04T06:17:39;103126.56;;;3.52;80.13
70900;BME280;67902;52.154;5.430;2023-04-04T06:20:06;103130.34;;;4.34;77.06
70900;BME280;67902;52.154;5.430;2023-04-04T06:22:33;103128.97;;;4.85;73.98
70900;BME280;67902;52.154;5.430;2023-04-04T06:25:00;103116.06;;;4.71;73.17
70900;BME280;67902;52.154;5.430;2023-04-04T06:27:26;103110.34;;;4.56;71.53
70900;BME280;67902;52.154;5.430;2023-04-04T06:29:53;103116.72;;;4.18;72.09
70900;BME280;67902;52.154;5.430;2023-04-04T06:32:19;103122.22;;;4.17;72.78
70900;BME280;67902;52.154;5.430;2023-04-04T06:34:47;103123.72;;;4.65;74.31
70900;BME280;67902;52.154;5.430;2023-04-04T06:37:13;103125.19;;;5.05;72.00
70900;BME280;67902;52.154;5.430;2023-04-04T06:39:40;103131.41;;;5.23;69.70
70900;BME280;67902;52.154;5.430;2023-04-04T06:42:06;103134.75;;;5.25;69.07
70900;BME280;67902;52.154;5.430;2023-04-04T06:44:33;103132.41;;;5.22;68.26
70900;BME280;67902;52.154;5.430;2023-04-04T06:46:59;103147.88;;;5.28;67.45
70900;BME280;67902;52.154;5.430;2023-04-04T06:49:26;103144.66;;;5.07;67.51
70900;BME280;67902;52.154;5.430;2023-04-04T06:51:52;103145.22;;;4.83;67.71
70900;BME280;67902;52.154;5.430;2023-04-04T06:54:19;103146.66;;;4.78;67.91
70900;BME280;67902;52.154;5.430;2023-04-04T06:56:45;103145.19;;;4.65;69.16
70900;BME280;67902;52.154;5.430;2023-04-04T06:59:12;103150.03;;;4.52;69.51
70900;BME280;67902;52.154;5.430;2023-04-04T07:01:39;103140.91;;;4.45;68.95
70900;BME280;67902;52.154;5.430;2023-04-04T07:04:05;103145.03;;;4.30;69.82
70900;BME280;67902;52.154;5.430;2023-04-04T07:06:32;103142.47;;;4.38;69.94
70900;BME280;67902;52.154;5.430;2023-04-04T07:08:58;103138.22;;;4.45;69.41
70900;BME280;67902;52.154;5.430;2023-04-04T07:11:25;103134.75;;;4.62;70.39
70900;BME280;67902;52.154;5.430;2023-04-04T07:13:52;103142.41;;;4.57;68.40
70900;BME280;67902;52.154;5.430;2023-04-04T07:16:18;103147.22;;;4.54;68.73
70900;BME280;67902;52.154;5.430;2023-04-04T07:18:45;103146.38;;;4.53;69.13
70900;BME280;67902;52.154;5.430;2023-04-04T07:21:11;103145.25;;;5.01;68.36
70900;BME280;67902;52.154;5.430;2023-04-04T07:23:38;103148.50;;;5.75;66.32
70900;BME280;67902;52.154;5.430;2023-04-04T07:26:05;103142.50;;;6.58;64.34
70900;BME280;67902;52.154;5.430;2023-04-04T07:28:31;103142.75;;;7.47;60.06
70900;BME280;67902;52.154;5.430;2023-04-04T07:30:59;103138.03;;;7.89;59.33
70900;BME280;67902;52.154;5.430;2023-04-04T07:33:27;103141.53;;;8.06;57.79
70900;BME280;67902;52.154;5.430;2023-04-04T07:35:53;103136.75;;;8.48;56.89
70900;BME280;67902;52.154;5.430;2023-04-04T07:38:20;103127.81;;;8.48;56.68
70900;BME280;67902;52.154;5.430;2023-04-04T07:40:49;103137.00;;;7.98;57.93
70900;BME280;67902;52.154;5.430;2023-04-04T07:43:16;103138.38;;;7.54;58.69
70900;BME280;67902;52.154;5.430;2023-04-04T07:45:42;103146.06;;;7.25;60.16
70900;BME280;67902;52.154;5.430;2023-04-04T07:48:09;103150.81;;;7.23;62.09
70900;BME280;67902;52.154;5.430;2023-04-04T07:50:48;103145.41;;;7.15;61.97
70900;BME280;67902;52.154;5.430;2023-04-04T07:53:14;103146.41;;;7.30;61.28
70900;BME280;67902;52.154;5.430;2023-04-04T07:55:44;103144.22;;;7.25;59.80
70900;BME280;67902;52.154;5.430;2023-04-04T07:58:10;103143.34;;;7.09;60.45
70900;BME280;67902;52.154;5.430;2023-04-04T08:00:37;103140.44;;;6.94;60.87
70900;BME280;67902;52.154;5.430;2023-04-04T08:03:04;103142.03;;;7.21;60.79
70900;BME280;67902;52.154;5.430;2023-04-04T08:05:31;103133.66;;;7.72;60.06
70900;BME280;67902;52.154;5.430;2023-04-04T08:07:57;103133.09;;;8.17;58.11
70900;BME280;67902;52.154;5.430;2023-04-04T08:10:24;103131.22;;;8.34;57.19
70900;BME280;67902;52.154;5.430;2023-04-04T08:12:50;103133.00;;;8.57;57.64
70900;BME280;67902;52.154;5.430;2023-04-04T08:15:18;103130.69;;;8.46;57.28
70900;BME280;67902;52.154;5.430;2023-04-04T08:17:44;103129.69;;;8.47;57.90
70900;BME280;67902;52.154;5.430;2023-04-04T08:20:11;103125.72;;;9.27;54.73
70900;BME280;67902;52.154;5.430;2023-04-04T08:22:39;103131.31;;;9.49;51.31
70900;BME280;67902;52.154;5.430;2023-04-04T08:25:06;103132.19;;;9.64;53.47
70900;BME280;67902;52.154;5.430;2023-04-04T08:27:33;103130.41;;;9.56;49.95
70900;BME280;67902;52.154;5.430;2023-04-04T08:30:00;103124.53;;;9.90;48.48
70900;BME280;67902;52.154;5.430;2023-04-04T08:32:29;103113.03;;;10.40;47.00
70900;BME280;67902;52.154;5.430;2023-04-04T08:34:55;103117.22;;;10.72;47.62
70900;BME280;67902;52.154;5.430;2023-04-04T08:37:21;103118.06;;;11.08;46.55
70900;BME280;67902;52.154;5.430;2023-04-04T08:39:48;103107.97;;;11.02;46.70
70900;BME280;67902;52.154;5.430;2023-04-04T08:42:17;103107.63;;;11.47;45.38
70900;BME280;67902;52.154;5.430;2023-04-04T08:44:47;103110.31;;;11.69;49.03
70900;BME280;67902;52.154;5.430;2023-04-04T08:47:15;103111.13;;;11.90;44.99
70900;BME280;67902;52.154;5.430;2023-04-04T08:49:42;103103.75;;;12.40;46.82
70900;BME280;67902;52.154;5.430;2023-04-04T08:52:13;103105.00;;;12.85;42.48
70900;BME280;67902;52.154;5.430;2023-04-04T08:54:40;103111.81;;;13.15;39.35
70900;BME280;67902;52.154;5.430;2023-04-04T08:57:08;103099.31;;;13.27;36.82
70900;BME280;67902;52.154;5.430;2023-04-04T08:59:35;103107.09;;;13.63;38.38
70900;BME280;67902;52.154;5.430;2023-04-04T09:04:34;103100.53;;;14.36;35.96
70900;BME280;67902;52.154;5.430;2023-04-04T09:07:02;103104.91;;;14.50;35.98
70900;BME280;67902;52.154;5.430;2023-04-04T09:09:32;103098.16;;;14.59;33.51
70900;BME280;67902;52.154;5.430;2023-04-04T09:12:00;103105.19;;;14.86;32.55
70900;BME280;67902;52.154;5.430;2023-04-04T09:14:28;103102.59;;;14.98;34.40
70900;BME280;67902;52.154;5.430;2023-04-04T09:16:56;103106.19;;;14.98;33.46
70900;BME280;67902;52.154;5.430;2023-04-04T09:19:22;103104.72;;;14.96;36.91
70900;BME280;67902;52.154;5.430;2023-04-04T09:21:51;103097.69;;;14.75;32.46
70900;BME280;67902;52.154;5.430;2023-04-04T09:24:18;103104.81;;;14.76;33.94
70900;BME280;67902;52.154;5.430;2023-04-04T09:26:52;103108.69;;;14.93;33.18
70900;BME280;67902;52.154;5.430;2023-04-04T09:29:19;103107.66;;;14.94;34.24
70900;BME280;67902;52.154;5.430;2023-04-04T09:31:47;103102.78;;;15.41;37.08
70900;BME280;67902;52.154;5.430;2023-04-04T09:34:16;103093.00;;;14.82;37.64
70900;BME280;67902;52.154;5.430;2023-04-04T09:36:44;103096.72;;;14.57;35.13
70900;BME280;67902;52.154;5.430;2023-04-04T09:39:12;103093.94;;;14.63;37.31
70900;BME280;67902;52.154;5.430;2023-04-04T09:41:43;103094.78;;;14.70;35.87
70900;BME280;67902;52.154;5.430;2023-04-04T09:44:11;103091.03;;;14.58;38.86
70900;BME280;67902;52.154;5.430;2023-04-04T09:46:38;103088.44;;;14.76;38.56
70900;BME280;67902;52.154;5.430;2023-04-04T09:49:09;103088.84;;;14.80;38.91
70900;BME280;67902;52.154;5.430;2023-04-04T09:51:38;103087.78;;;15.19;36.64
70900;BME280;67902;52.154;5.430;2023-04-04T09:54:10;103088.38;;;14.89;40.34
70900;BME280;67902;52.154;5.430;2023-04-04T09:56:48;103083.91;;;15.33;35.51
70900;BME280;67902;52.154;5.430;2023-04-04T09:59:16;103082.50;;;14.92;32.48
70900;BME280;67902;52.154;5.430;2023-04-04T10:01:44;103078.09;;;15.23;31.87
70900;BME280;67902;52.154;5.430;2023-04-04T10:04:13;103076.38;;;15.59;33.60
70900;BME280;67902;52.154;5.430;2023-04-04T10:06:41;103070.00;;;16.33;35.21
70900;BME280;67902;52.154;5.430;2023-04-04T10:09:08;103074.13;;;15.99;34.06
70900;BME280;67902;52.154;5.430;2023-04-04T10:11:35;103080.59;;;16.23;31.59
70900;BME280;67902;52.154;5.430;2023-04-04T10:14:03;103072.47;;;16.35;31.63
70900;BME280;67902;52.154;5.430;2023-04-04T10:16:33;103070.44;;;16.30;30.50
70900;BME280;67902;52.154;5.430;2023-04-04T10:19:06;103071.00;;;15.96;29.31
70900;BME280;67902;52.154;5.430;2023-04-04T10:21:34;103060.63;;;16.04;29.96
70900;BME280;67902;52.154;5.430;2023-04-04T10:24:01;103059.47;;;15.94;34.23
70900;BME280;67902;52.154;5.430;2023-04-04T10:26:34;103053.28;;;16.05;35.63
70900;BME280;67902;52.154;5.430;2023-04-04T10:29:02;103055.78;;;16.24;34.39
70900;BME280;67902;52.154;5.430;2023-04-04T10:31:32;103056.44;;;16.02;33.68
70900;BME280;67902;52.154;5.430;2023-04-04T10:34:35;103047.72;;;16.11;34.81
70900;BME280;67902;52.154;5.430;2023-04-04T10:39:43;103041.19;;;16.12;35.17
70900;BME280;67902;52.154;5.430;2023-04-04T10:42:14;103038.75;;;16.22;35.56
70900;BME280;67902;52.154;5.430;2023-04-04T10:44:43;103041.94;;;16.74;32.66
70900;BME280;67902;52.154;5.430;2023-04-04T10:47:17;103040.94;;;16.98;30.73
70900;BME280;67902;52.154;5.430;2023-04-04T10:49:44;103035.66;;;17.15;28.54
70900;BME280;67902;52.154;5.430;2023-04-04T10:52:13;103038.66;;;17.25;31.41
70900;BME280;67902;52.154;5.430;2023-04-04T10:54:40;103030.34;;;17.31;30.20
70900;BME280;67902;52.154;5.430;2023-04-04T10:57:07;103031.34;;;17.60;31.44
70900;BME280;67902;52.154;5.430;2023-04-04T11:00:07;103022.88;;;17.50;29.97
70900;BME280;67902;52.154;5.430;2023-04-04T11:05:26;103027.25;;;17.39;29.13
70900;BME280;67902;52.154;5.430;2023-04-04T11:08:05;103013.84;;;17.61;27.88
70900;BME280;67902;52.154;5.430;2023-04-04T11:10:56;103014.81;;;17.90;29.63
70900;BME280;67902;52.154;5.430;2023-04-04T11:13:31;103015.75;;;17.84;28.90
70900;BME280;67902;52.154;5.430;2023-04-04T11:15:59;103014.44;;;17.98;28.38
70900;BME280;67902;52.154;5.430;2023-04-04T11:26:33;102994.31;;;17.81;27.47
70900;BME280;67902;52.154;5.430;2023-04-04T11:29:02;103007.72;;;17.48;27.60
70900;BME280;67902;52.154;5.430;2023-04-04T11:31:39;102996.19;;;17.80;28.61
70900;BME280;67902;52.154;5.430;2023-04-04T11:34:12;102991.28;;;17.94;27.87
70900;BME280;67902;52.154;5.430;2023-04-04T11:42:03;102983.31;;;18.44;28.93
70900;BME280;67902;52.154;5.430;2023-04-04T11:44:32;102983.38;;;18.32;32.52
70900;BME280;67902;52.154;5.430;2023-04-04T11:47:01;102978.91;;;18.43;28.41
70900;BME280;67902;52.154;5.430;2023-04-04T11:49:32;102978.41;;;18.58;29.69
70900;BME280;67902;52.154;5.430;2023-04-04T11:52:05;102974.56;;;18.47;29.97
70900;BME280;67902;52.154;5.430;2023-04-04T11:54:32;102967.81;;;18.49;31.04
70900;BME280;67902;52.154;5.430;2023-04-04T11:56:59;102968.13;;;18.81;33.71
70900;BME280;67902;52.154;5.430;2023-04-04T11:59:25;102971.25;;;19.01;33.71
70900;BME280;67902;52.154;5.430;2023-04-04T12:01:53;102968.28;;;19.20;31.22
70900;BME280;67902;52.154;5.430;2023-04-04T12:04:20;102974.91;;;19.07;31.16
70900;BME280;67902;52.154;5.430;2023-04-04T12:06:49;102965.53;;;19.03;28.30
70900;BME280;67902;52.154;5.430;2023-04-04T12:09:19;102958.75;;;19.27;29.19
70900;BME280;67902;52.154;5.430;2023-04-04T12:11:46;102958.28;;;19.14;29.24
70900;BME280;67902;52.154;5.430;2023-04-04T12:14:23;102948.63;;;19.28;29.08
70900;BME280;67902;52.154;5.430;2023-04-04T12:16:53;102943.25;;;18.71;26.96
70900;BME280;67902;52.154;5.430;2023-04-04T12:19:22;102944.31;;;18.02;29.83
70900;BME280;67902;52.154;5.430;2023-04-04T12:21:50;102947.25;;;18.64;29.61
70900;BME280;67902;52.154;5.430;2023-04-04T12:24:18;102940.13;;;18.96;29.70
70900;BME280;67902;52.154;5.430;2023-04-04T12:26:46;102940.81;;;18.58;28.09
70900;BME280;67902;52.154;5.430;2023-04-04T12:29:15;102930.66;;;18.59;26.46
70900;BME280;67902;52.154;5.430;2023-04-04T12:31:43;102931.97;;;19.01;29.55
70900;BME280;67902;52.154;5.430;2023-04-04T12:34:21;102917.56;;;19.27;29.05
70900;BME280;67902;52.154;5.430;2023-04-04T12:36:54;102922.63;;;19.35;27.94
70900;BME280;67902;52.154;5.430;2023-04-04T12:39:21;102932.31;;;19.04;26.28
70900;BME280;67902;52.154;5.430;2023-04-04T12:41:55;102921.28;;;19.54;26.40
70900;BME280;67902;52.154;5.430;2023-04-04T12:44:29;102923.16;;;19.71;30.35
70900;BME280;67902;52.154;5.430;2023-04-04T12:46:57;102912.25;;;19.76;26.49
70900;BME280;67902;52.154;5.430;2023-04-04T12:49:29;102907.16;;;20.33;26.85
70900;BME280;67902;52.154;5.430;2023-04-04T12:51:57;102902.75;;;20.58;27.55
70900;BME280;67902;52.154;5.430;2023-04-04T12:54:31;102905.31;;;20.38;27.00
70900;BME280;67902;52.154;5.430;2023-04-04T12:57:00;102905.88;;;20.18;27.17
70900;BME280;67902;52.154;5.430;2023-04-04T12:59:30;102903.63;;;20.91;25.85
70900;BME280;67902;52.154;5.430;2023-04-04T13:02:00;102893.22;;;21.03;25.16
70900;BME280;67902;52.154;5.430;2023-04-04T13:04:27;102889.53;;;20.87;25.97
70900;BME280;67902;52.154;5.430;2023-04-04T13:06:53;102881.47;;;20.80;25.67
70900;BME280;67902;52.154;5.430;2023-04-04T13:09:22;102879.84;;;20.79;26.27
70900;BME280;67902;52.154;5.430;2023-04-04T13:12:04;102877.03;;;20.74;27.63
70900;BME280;67902;52.154;5.430;2023-04-04T13:14:58;102864.56;;;20.99;26.68
70900;BME280;67902;52.154;5.430;2023-04-04T13:17:37;102867.16;;;20.78;26.17
70900;BME280;67902;52.154;5.430;2023-04-04T13:20:04;102864.97;;;20.80;26.97
70900;BME280;67902;52.154;5.430;2023-04-04T13:22:34;102868.44;;;20.39;28.68
70900;BME280;67902;52.154;5.430;2023-04-04T13:25:05;102862.03;;;20.29;28.22